Rudd, North Carolina
Current Conditions -  °F | °C
As of 2:54 AM on Thursday 18 Dec 2014 (Local Time) from KBUY Reporting Station
Clear Clear  
Wind Chill: 40°   Ceiling: Unl
Heat Index: 40°   Visibility: 10mi
Dew Point: 27°   Wind: 3mph
Humidity: 60%   Direction: 330°NNW
Pressure: 30.1"   Gusts: NA
Location:  36.2136°N, 79.6775°W
Report Text: KBUY 180754Z AUTO 33003KT 10SM CLR 04/M03 A3010 RMK AO2 SLP194 T00441028
Loading
Personal Weather Stations






























Interactive Weather Map New forecast layout! Learn more

10-Day Weather Forecast

Advertisements
Track Severe Weather on mobile